Time;durP1;ratioP1;P1;durP2;ratioP2;P2;SDS_P1;SDS_P2;PMS_P1;PMS_P2;Temp;Humidity;BMP_temperature;BMP_pressure;BME280_temperature;BME280_humidity;BME280_pressure;Samples;Min_cycle;Max_cycle;Signal;HPM_P1;HPM_P2
2022/10/01 03:03:07;;;;;;;2.78;0.47;;;9.60;99.90;;;;;;5048431;23;94362;-83
2022/10/01 03:05:32;;;;;;;1.63;0.40;;;9.50;99.90;;;;;;4899092;28;92958;-81
2022/10/01 03:07:58;;;;;;;3.85;0.38;;;9.40;99.90;;;;;;4902792;28;91411;-81
2022/10/01 03:10:24;;;;;;;3.38;0.30;;;9.40;99.90;;;;;;4903252;28;91269;-80
2022/10/01 03:12:49;;;;;;;1.23;0.25;;;9.40;99.90;;;;;;4902975;28;91566;-82
2022/10/01 03:15:18;;;;;;;1.73;0.40;;;9.40;99.90;;;;;;4908610;28;91953;-81
2022/10/01 03:17:44;;;;;;;1.20;0.30;;;9.40;99.90;;;;;;4904468;28;92695;-80
2022/10/01 03:20:11;;;;;;;1.88;0.30;;;9.40;99.90;;;;;;4902833;28;91324;-81
2022/10/01 03:22:37;;;;;;;1.10;0.30;;;9.50;99.90;;;;;;4902502;28;92168;-81
2022/10/01 03:25:03;;;;;;;3.05;0.40;;;9.50;99.90;;;;;;4901408;28;91344;-81
2022/10/01 03:27:29;;;;;;;1.55;0.35;;;9.40;99.90;;;;;;4902501;28;91487;-81
2022/10/01 03:29:55;;;;;;;0.98;0.20;;;9.40;99.90;;;;;;4897125;28;91852;-81
2022/10/01 03:32:21;;;;;;;1.23;0.30;;;9.20;99.90;;;;;;4884426;28;93385;-82
2022/10/01 03:34:47;;;;;;;2.40;0.40;;;9.20;99.90;;;;;;4887240;28;92089;-81
2022/10/01 03:37:13;;;;;;;1.23;0.20;;;9.10;99.90;;;;;;4902348;28;91845;-80
2022/10/01 03:39:38;;;;;;;1.65;0.30;;;9.20;99.90;;;;;;4904329;28;91179;-81
2022/10/01 03:42:04;;;;;;;1.17;0.20;;;9.10;99.90;;;;;;4901652;28;93208;-79
2022/10/01 03:44:30;;;;;;;1.20;0.20;;;9.10;99.90;;;;;;4901569;28;93834;-81
2022/10/01 03:46:56;;;;;;;1.38;0.30;;;9.20;99.90;;;;;;4902788;28;91661;-84
2022/10/01 03:49:22;;;;;;;1.30;0.30;;;9.20;99.90;;;;;;4916920;28;91508;-79
2022/10/01 03:51:48;;;;;;;1.10;0.30;;;9.20;99.90;;;;;;4905135;28;91518;-79
2022/10/01 03:54:14;;;;;;;2.38;0.20;;;9.30;99.90;;;;;;4900177;28;92163;-80
2022/10/01 03:56:41;;;;;;;1.23;0.30;;;9.40;99.90;;;;;;4901211;28;91887;-80
2022/10/01 03:59:08;;;;;;;4.00;0.20;;;9.40;99.90;;;;;;4917450;28;91176;-79
2022/10/01 04:01:34;;;;;;;1.00;0.20;;;9.40;99.90;;;;;;4896398;28;93643;-80
2022/10/01 04:04:00;;;;;;;1.88;0.20;;;9.30;99.90;;;;;;4881578;28;92037;-78
2022/10/01 04:06:25;;;;;;;0.95;0.20;;;9.30;99.90;;;;;;4888760;28;92825;-77
2022/10/01 04:08:51;;;;;;;1.77;0.28;;;9.30;99.90;;;;;;4893881;28;91739;-77
2022/10/01 04:11:17;;;;;;;0.98;0.20;;;9.30;99.90;;;;;;4883949;28;92196;-78
2022/10/01 04:13:42;;;;;;;0.90;0.28;;;9.30;99.90;;;;;;4882483;28;91468;-80
2022/10/01 04:16:09;;;;;;;1.58;0.50;;;9.30;99.90;;;;;;4877812;28;91424;-80
2022/10/01 04:18:34;;;;;;;1.17;0.20;;;9.30;99.90;;;;;;4882188;28;92081;-80
2022/10/01 04:21:01;;;;;;;1.17;0.20;;;9.20;99.90;;;;;;4885138;28;92292;-81
2022/10/01 04:23:27;;;;;;;1.75;0.30;;;9.10;99.90;;;;;;4877190;28;91139;-80
2022/10/01 04:25:53;;;;;;;0.82;0.20;;;9.10;99.90;;;;;;4877038;28;91982;-79
2022/10/01 04:28:19;;;;;;;1.02;0.30;;;9.00;99.90;;;;;;4866007;28;91302;-79
2022/10/01 04:30:45;;;;;;;1.55;0.32;;;8.90;99.90;;;;;;4896606;28;93182;-79
2022/10/01 04:33:13;;;;;;;1.30;0.30;;;8.90;99.90;;;;;;4893009;28;92082;-79
2022/10/01 04:35:39;;;;;;;2.85;0.30;;;8.80;99.90;;;;;;4899029;28;91917;-80
2022/10/01 04:38:14;;;;;;;1.88;0.40;;;8.70;99.90;;;;;;4880188;28;91465;-80
2022/10/01 04:40:40;;;;;;;4.03;0.43;;;8.70;99.90;;;;;;4878059;28;92732;-80
2022/10/01 04:43:09;;;;;;;1.85;0.22;;;8.50;99.90;;;;;;4881741;28;92101;-80
2022/10/01 04:45:36;;;;;;;2.05;0.50;;;8.50;99.90;;;;;;4887608;28;91898;-80
2022/10/01 04:48:02;;;;;;;1.73;0.30;;;8.50;99.90;;;;;;4889882;28;90640;-80
2022/10/01 04:50:28;;;;;;;2.10;0.40;;;8.50;99.90;;;;;;4866084;28;92357;-77
2022/10/01 04:52:54;;;;;;;5.63;0.30;;;8.50;99.90;;;;;;4883031;28;92251;-81
2022/10/01 04:55:20;;;;;;;2.60;0.40;;;8.50;99.90;;;;;;4881182;28;92314;-81
2022/10/01 04:57:46;;;;;;;4.25;0.35;;;8.50;99.90;;;;;;4877824;28;91851;-77
2022/10/01 05:00:16;;;;;;;3.65;0.32;;;8.50;99.90;;;;;;4890146;28;91995;-80
2022/10/01 05:02:46;;;;;;;1.40;0.50;;;8.60;99.90;;;;;;4879808;28;91469;-80
2022/10/01 05:05:12;;;;;;;1.80;0.20;;;8.70;99.90;;;;;;4883855;28;91250;-78
2022/10/01 05:07:39;;;;;;;3.05;0.20;;;8.80;99.90;;;;;;4882164;28;91468;-78
2022/10/01 05:10:10;;;;;;;1.00;0.20;;;8.90;99.90;;;;;;4886643;28;91840;-77
2022/10/01 05:12:36;;;;;;;2.67;0.20;;;8.90;99.90;;;;;;4890787;28;91277;-78
2022/10/01 05:15:02;;;;;;;1.80;0.20;;;9.00;99.90;;;;;;4884394;28;91551;-77
2022/10/01 05:17:31;;;;;;;1.90;0.30;;;9.00;99.90;;;;;;4884795;28;91419;-78
2022/10/01 05:19:57;;;;;;;1.40;0.22;;;9.10;99.90;;;;;;4888246;28;93705;-78
2022/10/01 05:22:23;;;;;;;2.58;0.20;;;8.90;99.90;;;;;;4884142;28;92332;-78
2022/10/01 05:24:48;;;;;;;0.80;0.20;;;8.70;99.90;;;;;;4888310;28;91430;-79
2022/10/01 05:27:14;;;;;;;1.77;0.30;;;8.70;99.90;;;;;;4895205;28;91738;-78
2022/10/01 05:29:40;;;;;;;1.50;0.20;;;8.60;99.90;;;;;;4888224;28;92253;-78
2022/10/01 05:32:10;;;;;;;2.95;0.30;;;8.70;99.90;;;;;;4886715;28;92031;-78
2022/10/01 05:34:36;;;;;;;;;;;8.80;99.90;;;;;;4879857;28;91921;-78
2022/10/01 05:37:02;;;;;;;4.60;0.30;;;8.90;99.90;;;;;;4894452;28;90501;-79
2022/10/01 05:39:29;;;;;;;1.83;0.20;;;9.00;99.90;;;;;;4887373;28;92238;-78
2022/10/01 05:41:56;;;;;;;2.83;0.20;;;9.00;99.90;;;;;;4883722;28;92015;-80
2022/10/01 05:44:23;;;;;;;4.40;0.47;;;9.10;99.90;;;;;;4886022;28;92247;-79
2022/10/01 05:46:49;;;;;;;2.90;0.65;;;9.00;99.90;;;;;;4894641;28;91683;-79
2022/10/01 05:49:16;;;;;;;1.60;0.47;;;8.90;99.90;;;;;;4884999;28;92089;-83
2022/10/01 05:51:42;;;;;;;2.35;0.43;;;8.80;99.90;;;;;;4887177;28;92307;-80
2022/10/01 05:54:08;;;;;;;2.20;0.40;;;8.60;99.90;;;;;;4878464;28;91945;-80
2022/10/01 05:56:34;;;;;;;4.50;0.70;;;8.70;99.90;;;;;;4881331;28;91709;-79
2022/10/01 05:59:00;;;;;;;4.03;0.68;;;8.60;99.90;;;;;;4880878;28;92463;-80
2022/10/01 06:01:26;;;;;;;3.47;0.70;;;8.50;99.90;;;;;;4883843;28;92449;-81
2022/10/01 06:03:52;;;;;;;3.28;0.75;;;8.60;99.90;;;;;;4880723;28;91737;-83
2022/10/01 06:06:22;;;;;;;1.83;0.60;;;8.50;99.90;;;;;;4881058;28;91311;-83
2022/10/01 06:08:48;;;;;;;2.75;0.90;;;8.60;99.90;;;;;;4881100;28;92639;-79
2022/10/01 06:11:15;;;;;;;4.20;0.65;;;8.60;99.90;;;;;;4881609;28;93217;-78
2022/10/01 06:13:44;;;;;;;2.28;0.50;;;8.80;99.90;;;;;;4883684;28;91793;-80
2022/10/01 06:16:10;;;;;;;1.75;0.40;;;9.00;99.90;;;;;;4893961;28;91810;-79
2022/10/01 06:18:36;;;;;;;2.08;0.50;;;9.20;99.90;;;;;;4886767;28;93291;-79
2022/10/01 06:21:02;;;;;;;0.95;0.20;;;9.40;99.90;;;;;;4883102;28;91234;-80
2022/10/01 06:23:27;;;;;;;2.10;0.20;;;9.50;99.90;;;;;;4881410;28;91183;-79
2022/10/01 06:25:53;;;;;;;2.25;0.10;;;9.70;99.90;;;;;;4874197;28;90914;-78
2022/10/01 06:28:19;;;;;;;0.73;0.20;;;9.70;99.90;;;;;;4880680;28;92324;-79
2022/10/01 06:30:45;;;;;;;0.77;0.20;;;9.90;99.90;;;;;;4879260;28;92030;-80
2022/10/01 06:33:13;;;;;;;2.22;0.30;;;10.00;99.90;;;;;;4881163;28;92915;-79
2022/10/01 06:35:47;;;;;;;1.13;0.28;;;10.00;99.90;;;;;;4882553;28;91367;-78
2022/10/01 06:38:13;;;;;;;0.80;0.10;;;10.00;99.90;;;;;;4872186;28;93466;-76
2022/10/01 06:40:40;;;;;;;2.78;0.30;;;10.20;99.90;;;;;;4880469;28;92429;-81
2022/10/01 06:43:07;;;;;;;2.15;0.50;;;10.30;99.90;;;;;;4872160;28;92178;-80
2022/10/01 06:45:37;;;;;;;2.60;0.30;;;10.40;99.90;;;;;;4870689;28;92247;-80
2022/10/01 06:48:03;;;;;;;0.88;0.17;;;10.40;99.90;;;;;;4873605;28;93402;-80
2022/10/01 06:50:33;;;;;;;1.30;0.30;;;10.30;99.90;;;;;;4873209;28;92268;-81
2022/10/01 06:53:00;;;;;;;2.08;0.40;;;10.20;99.90;;;;;;4877348;28;91719;-82
2022/10/01 06:55:32;;;;;;;1.55;0.40;;;10.10;99.90;;;;;;4875752;28;91789;-80
2022/10/01 06:58:07;;;;;;;4.97;0.40;;;10.10;99.90;;;;;;4875122;28;94745;-81
2022/10/01 07:00:34;;;;;;;2.33;0.50;;;10.00;99.90;;;;;;4868209;28;92202;-80
2022/10/01 07:03:02;;;;;;;2.38;0.55;;;10.10;99.90;;;;;;4888521;28;91964;-81
2022/10/01 07:05:29;;;;;;;1.25;0.32;;;10.10;99.90;;;;;;4893139;28;92005;-81
2022/10/01 07:07:54;;;;;;;1.85;0.30;;;10.20;99.90;;;;;;4889654;28;93637;-80
2022/10/01 07:10:22;;;;;;;1.90;0.10;;;10.30;99.90;;;;;;4891673;28;91764;-81
2022/10/01 07:12:49;;;;;;;1.75;0.20;;;10.40;99.90;;;;;;4893183;28;91345;-81
2022/10/01 07:15:16;;;;;;;1.60;0.40;;;10.50;99.90;;;;;;4892400;28;91147;-80
2022/10/01 07:17:44;;;;;;;1.15;0.20;;;10.50;99.90;;;;;;4897238;28;92230;-80
2022/10/01 07:20:10;;;;;;;1.27;0.20;;;10.60;99.90;;;;;;4891844;28;91926;-81
2022/10/01 07:22:36;;;;;;;1.50;0.30;;;10.60;99.90;;;;;;4891882;28;92278;-81
2022/10/01 07:25:02;;;;;;;1.02;0.20;;;10.50;99.90;;;;;;4889728;28;91549;-80
2022/10/01 07:27:27;;;;;;;1.63;0.30;;;10.50;99.90;;;;;;4898719;28;92623;-80
2022/10/01 07:29:57;;;;;;;1.48;0.30;;;10.40;99.90;;;;;;4896459;28;91855;-81
2022/10/01 07:32:24;;;;;;;;;;;10.40;99.90;;;;;;4897264;28;91786;-83
2022/10/01 07:34:50;;;;;;;1.60;0.40;;;10.40;99.90;;;;;;4901500;28;91342;-80
2022/10/01 07:37:15;;;;;;;2.25;0.20;;;10.40;99.90;;;;;;4892308;28;93370;-80
2022/10/01 07:39:41;;;;;;;0.55;0.20;;;10.60;99.90;;;;;;4889559;28;92201;-81
2022/10/01 07:42:07;;;;;;;1.30;0.20;;;10.70;99.90;;;;;;4895446;28;91369;-81
2022/10/01 07:44:33;;;;;;;1.20;0.13;;;10.80;99.90;;;;;;4897888;28;91595;-81
2022/10/01 07:46:59;;;;;;;0.90;0.10;;;10.80;99.90;;;;;;4893944;28;93038;-81
2022/10/01 07:49:25;;;;;;;0.98;0.20;;;11.00;99.90;;;;;;4896480;28;92906;-80
2022/10/01 07:51:52;;;;;;;0.68;0.20;;;11.00;99.90;;;;;;4892228;28;91921;-80
2022/10/01 07:54:19;;;;;;;0.80;0.15;;;11.10;99.90;;;;;;4901948;28;91469;-81
2022/10/01 07:56:44;;;;;;;2.65;0.45;;;11.20;99.90;;;;;;4891829;28;91980;-81
2022/10/01 07:59:10;;;;;;;1.25;0.38;;;11.30;99.90;;;;;;4912070;28;91330;-80
2022/10/01 08:01:36;;;;;;;3.03;0.30;;;11.00;99.90;;;;;;4910451;28;91725;-80
2022/10/01 08:05:16;;;;;;;1.45;0.20;;;11.10;99.90;;;;;;4899468;28;91822;-80
2022/10/01 08:06:51;;;;;;;1.70;0.40;;;10.90;99.90;;;;;;4890341;28;93260;-80
2022/10/01 08:09:18;;;;;;;1.67;0.47;;;10.90;99.90;;;;;;4895475;28;92027;-79
2022/10/01 08:11:44;;;;;;;4.57;0.45;;;10.70;99.90;;;;;;4904630;28;92697;-80
2022/10/01 08:14:11;;;;;;;1.58;0.50;;;10.80;99.90;;;;;;4908209;28;92033;-80
2022/10/01 08:16:38;;;;;;;1.88;0.22;;;10.70;99.90;;;;;;4892189;28;92277;-80
2022/10/01 08:19:06;;;;;;;0.90;0.20;;;10.80;99.90;;;;;;4891474;28;91696;-81
2022/10/01 08:21:34;;;;;;;2.53;0.30;;;11.00;99.90;;;;;;4893603;28;91893;-81
2022/10/01 08:24:01;;;;;;;1.85;0.20;;;11.30;99.90;;;;;;4896518;28;91381;-80
2022/10/01 08:26:27;;;;;;;0.70;0.20;;;11.40;99.90;;;;;;4893613;28;92438;-80
2022/10/01 08:28:53;;;;;;;1.67;0.30;;;11.70;99.90;;;;;;4893958;28;93369;-83
2022/10/01 08:31:18;;;;;;;1.10;0.10;;;12.00;99.90;;;;;;4901429;28;92251;-83
2022/10/01 08:33:44;;;;;;;0.60;0.10;;;12.10;99.40;;;;;;4885212;28;92034;-83
2022/10/01 08:36:10;;;;;;;0.80;0.20;;;12.30;98.20;;;;;;4893382;28;93007;-83
2022/10/01 08:38:39;;;;;;;0.73;0.20;;;12.30;97.40;;;;;;4894618;28;93488;-82
2022/10/01 08:41:25;;;;;;;0.95;0.20;;;12.30;98.60;;;;;;4891827;28;91436;-83
2022/10/01 08:43:52;;;;;;;0.70;0.10;;;12.40;97.70;;;;;;4892125;28;91891;-81
2022/10/01 08:46:21;;;;;;;2.42;0.28;;;12.40;97.10;;;;;;4896549;28;91609;-80
2022/10/01 08:49:05;;;;;;;0.90;0.20;;;12.30;97.90;;;;;;4896673;28;92271;-79
2022/10/01 08:51:41;;;;;;;0.95;0.30;;;12.20;98.00;;;;;;4900430;28;91895;-83
2022/10/01 08:54:18;;;;;;;0.80;0.20;;;12.20;97.30;;;;;;4895367;28;91092;-83
2022/10/01 08:56:46;;;;;;;0.80;0.20;;;12.30;98.10;;;;;;4901352;28;92467;-83
2022/10/01 08:59:31;;;;;;;0.90;0.20;;;12.40;97.50;;;;;;4898011;28;92016;-82
2022/10/01 09:01:58;;;;;;;2.40;0.13;;;12.40;97.70;;;;;;4894826;28;93093;-84
2022/10/01 09:04:24;;;;;;;1.05;0.10;;;12.40;98.00;;;;;;4896525;28;92053;-83
2022/10/01 09:07:04;;;;;;;1.55;0.20;;;12.40;98.10;;;;;;4895301;28;91933;-83
2022/10/01 09:09:48;;;;;;;1.92;0.43;;;12.40;98.40;;;;;;4897740;28;91538;-83
2022/10/01 09:12:14;;;;;;;4.07;0.80;;;12.30;98.10;;;;;;4891265;28;92150;-83
2022/10/01 09:15:03;;;;;;;1.20;0.35;;;12.20;99.20;;;;;;4897673;28;91514;-85
2022/10/01 09:17:55;;;;;;;2.10;1.23;;;12.20;99.90;;;;;;4894920;28;92786;-84
2022/10/01 09:20:30;;;;;;;2.17;0.98;;;12.10;99.80;;;;;;4899742;28;91624;-83
2022/10/01 09:23:14;;;;;;;4.40;2.60;;;12.10;99.90;;;;;;4896123;28;91942;-84
2022/10/01 09:25:43;;;;;;;1.50;0.45;;;12.20;99.50;;;;;;4892680;28;91548;-82
2022/10/01 09:28:21;;;;;;;3.05;0.77;;;12.20;99.90;;;;;;4893918;28;93401;-84
2022/10/01 09:30:53;;;;;;;6.93;1.08;;;12.20;99.90;;;;;;4900811;28;93360;-83
2022/10/01 09:33:20;;;;;;;1.15;0.30;;;12.20;99.90;;;;;;4897592;28;92063;-83
2022/10/01 09:35:53;;;;;;;2.47;0.77;;;12.10;99.90;;;;;;4904116;28;92119;-83
2022/10/01 09:38:19;;;;;;;1.23;0.20;;;12.20;99.90;;;;;;4901376;28;93715;-82
2022/10/01 09:40:55;;;;;;;7.43;2.90;;;12.20;99.90;;;;;;4895918;28;91922;-83
2022/10/01 09:43:37;;;;;;;1.85;0.22;;;12.20;99.90;;;;;;4897693;28;92696;-83
2022/10/01 09:46:13;;;;;;;4.30;1.40;;;12.30;99.90;;;;;;4895191;28;91440;-83
2022/10/01 09:49:07;;;;;;;4.35;1.85;;;12.30;99.90;;;;;;4893556;28;92234;-83
2022/10/01 09:51:57;;;;;;;2.50;0.57;;;12.20;99.90;;;;;;4900970;28;92154;-84
2022/10/01 09:54:30;;;;;;;2.13;0.40;;;12.10;99.90;;;;;;4906675;28;92812;-84
2022/10/01 09:57:08;;;;;;;1.73;0.35;;;12.00;99.90;;;;;;4906148;28;91820;-83
2022/10/01 09:59:49;;;;;;;0.98;0.30;;;12.10;99.90;;;;;;4889548;28;91400;-83
2022/10/01 10:02:22;;;;;;;1.23;0.22;;;12.10;99.90;;;;;;4901744;28;91989;-83
2022/10/01 10:04:58;;;;;;;1.02;0.20;;;12.20;99.90;;;;;;4890435;28;91239;-84
2022/10/01 10:07:24;;;;;;;1.55;0.20;;;12.40;99.90;;;;;;4903047;28;91236;-82
2022/10/01 10:09:51;;;;;;;1.60;0.30;;;12.50;99.90;;;;;;4898399;28;92100;-84
2022/10/01 10:12:35;;;;;;;4.18;1.17;;;12.60;99.90;;;;;;4900770;28;92396;-84
2022/10/01 10:15:19;;;;;;;2.53;0.40;;;12.60;99.90;;;;;;4900036;28;91828;-84
2022/10/01 10:17:49;;;;;;;3.35;0.30;;;12.30;99.90;;;;;;4907244;28;91432;-84
2022/10/01 10:20:23;;;;;;;1.42;0.35;;;12.00;99.90;;;;;;4903325;28;92773;-84
2022/10/01 10:22:49;;;;;;;1.42;0.30;;;12.10;99.90;;;;;;4904084;28;92884;-84
2022/10/01 10:25:23;;;;;;;3.00;0.35;;;12.10;99.90;;;;;;4899097;28;91287;-84
2022/10/01 10:27:54;;;;;;;3.95;0.50;;;12.00;99.90;;;;;;4899092;28;91358;-83
2022/10/01 10:30:20;;;;;;;3.85;0.70;;;12.00;99.90;;;;;;4895338;28;92175;-84
2022/10/01 10:32:46;;;;;;;2.72;0.77;;;12.00;99.90;;;;;;4899890;28;92092;-82
2022/10/01 10:35:19;;;;;;;4.88;0.50;;;11.60;99.90;;;;;;4897834;28;92010;-82
2022/10/01 10:37:50;;;;;;;3.92;0.50;;;11.50;99.90;;;;;;4894381;28;90814;-81
2022/10/01 10:40:21;;;;;;;1.23;0.30;;;11.60;99.90;;;;;;4897923;28;91571;-85
2022/10/01 10:42:49;;;;;;;2.10;0.38;;;11.70;99.90;;;;;;4899582;28;91621;-84
2022/10/01 10:45:19;;;;;;;4.20;0.70;;;11.80;99.90;;;;;;4899457;28;92273;-85
2022/10/01 10:47:49;;;;;;;3.10;0.75;;;11.90;99.90;;;;;;4891807;28;91348;-85
2022/10/01 10:50:34;;;;;;;2.53;0.60;;;12.00;99.90;;;;;;4901378;28;92259;-84
2022/10/01 10:53:21;;;;;;;2.40;0.90;;;12.10;99.90;;;;;;4900036;28;92202;-84
2022/10/01 10:55:59;;;;;;;5.53;0.65;;;12.00;99.90;;;;;;4885874;28;92426;-84
2022/10/01 10:58:28;;;;;;;2.10;0.40;;;12.00;99.90;;;;;;4903207;28;92081;-85
2022/10/01 11:00:57;;;;;;;2.30;0.52;;;12.00;99.90;;;;;;4897029;28;92769;-81
2022/10/01 11:03:27;;;;;;;5.57;0.93;;;12.10;99.90;;;;;;4895872;28;92384;-81
2022/10/01 11:05:57;;;;;;;4.47;0.95;;;12.10;99.90;;;;;;4895672;28;93163;-82
2022/10/01 11:08:26;;;;;;;4.63;1.42;;;12.10;99.90;;;;;;4897144;28;91396;-81
2022/10/01 11:11:14;;;;;;;4.78;2.75;;;12.20;99.90;;;;;;4892694;28;93790;-82
2022/10/01 11:14:16;;;;;;;3.20;1.50;;;12.30;99.90;;;;;;4892174;28;93362;-81
2022/10/01 11:16:42;;;;;;;2.83;1.23;;;12.30;99.90;;;;;;4901071;28;91896;-84
2022/10/01 11:19:20;;;;;;;3.55;1.10;;;12.40;99.90;;;;;;4890832;28;91681;-82
2022/10/01 11:22:00;;;;;;;2.25;0.90;;;12.40;99.90;;;;;;4897897;28;92084;-82
2022/10/01 11:24:41;;;;;;;3.10;1.25;;;12.40;99.90;;;;;;4895369;28;92000;-83
2022/10/01 11:27:23;;;;;;;3.03;1.00;;;12.50;99.90;;;;;;4889907;28;92916;-82
2022/10/01 11:30:08;;;;;;;3.03;1.10;;;12.40;99.90;;;;;;4896832;28;90635;-83
2022/10/01 11:32:33;;;;;;;4.70;1.52;;;12.60;99.90;;;;;;4896922;28;92387;-82
2022/10/01 11:35:36;;;;;;;4.25;0.73;;;12.20;99.90;;;;;;4897985;28;91367;-83
2022/10/01 11:38:17;;;;;;;;;;;12.20;99.90;;;;;;4861371;28;93310;-82
2022/10/01 11:40:47;;;;;;;1.55;0.70;;;12.00;99.90;;;;;;4896183;28;91848;-82
2022/10/01 11:43:41;;;;;;;4.25;1.30;;;12.20;99.90;;;;;;4888926;28;91999;-82
2022/10/01 11:46:52;;;;;;;4.90;2.33;;;12.40;99.90;;;;;;4884775;28;92730;-82
2022/10/01 11:49:40;;;;;;;8.73;4.88;;;12.40;99.90;;;;;;4876154;28;92153;-83
2022/10/01 11:52:23;;;;;;;6.20;3.63;;;12.20;99.90;;;;;;4889936;28;91920;-82
2022/10/01 11:54:54;;;;;;;4.55;2.17;;;12.30;99.90;;;;;;4899025;28;91612;-82
2022/10/01 12:00:09;;;;;;;5.65;2.92;;;12.60;99.90;;;;;;4898233;28;92598;-83
2022/10/01 12:02:51;;;;;;;5.60;2.78;;;12.60;99.90;;;;;;4899402;28;91315;-83
2022/10/01 12:05:26;;;;;;;5.03;1.70;;;12.60;99.90;;;;;;4897126;28;93223;-82
2022/10/01 12:08:12;;;;;;;9.73;2.35;;;12.40;99.90;;;;;;4899785;28;92853;-82
2022/10/01 12:10:57;;;;;;;4.85;2.25;;;11.90;99.90;;;;;;4898115;28;92152;-79
2022/10/01 12:13:31;;;;;;;16.05;6.88;;;11.70;99.90;;;;;;4896456;28;92133;-78
2022/10/01 12:16:04;;;;;;;3.78;1.77;;;11.40;99.90;;;;;;4891356;28;92298;-81
2022/10/01 12:18:39;;;;;;;4.20;1.88;;;11.40;99.90;;;;;;4896555;28;92137;-80
2022/10/01 12:21:18;;;;;;;5.65;2.28;;;11.50;99.90;;;;;;4902064;28;91307;-81
2022/10/01 12:24:10;;;;;;;4.45;2.50;;;11.60;99.90;;;;;;4903252;28;90912;-82
2022/10/01 12:26:56;;;;;;;4.75;1.30;;;11.70;99.90;;;;;;4899620;28;91775;-81
2022/10/01 12:29:42;;;;;;;2.90;1.30;;;11.90;99.90;;;;;;4898368;28;91408;-81
2022/10/01 12:32:35;;;;;;;5.50;1.83;;;12.00;99.90;;;;;;4898018;28;93014;-81
2022/10/01 12:35:01;;;;;;;3.78;1.30;;;12.10;99.90;;;;;;4894072;28;91322;-78
2022/10/01 12:37:48;;;;;;;2.97;1.42;;;12.10;99.90;;;;;;4900340;28;94159;-80
2022/10/01 12:40:47;;;;;;;3.72;1.13;;;12.10;99.90;;;;;;4906446;28;91916;-79
2022/10/01 12:43:24;;;;;;;2.55;1.08;;;12.20;99.90;;;;;;4882404;28;91339;-81
2022/10/01 12:46:09;;;;;;;2.97;1.25;;;12.40;99.90;;;;;;4900068;28;91316;-80
2022/10/01 12:49:10;;;;;;;2.42;0.98;;;12.50;99.90;;;;;;4898329;28;92268;-81
2022/10/01 12:51:40;;;;;;;2.75;1.10;;;12.60;99.90;;;;;;4889963;28;91804;-79
2022/10/01 12:54:42;;;;;;;3.85;1.40;;;12.60;99.90;;;;;;4889722;28;91506;-79
2022/10/01 12:57:27;;;;;;;8.07;1.60;;;12.60;99.90;;;;;;4905421;28;91314;-79
2022/10/01 13:00:00;;;;;;;4.65;2.00;;;12.50;99.90;;;;;;4904303;28;93047;-82
2022/10/01 13:02:54;;;;;;;3.50;1.52;;;12.60;99.90;;;;;;4900695;28;92951;-78
2022/10/01 13:05:22;;;;;;;8.63;5.13;;;12.40;99.90;;;;;;4898940;28;91253;-80
2022/10/01 13:08:06;;;;;;;35.38;16.20;;;12.50;99.90;;;;;;4895297;28;91286;-81
2022/10/01 13:11:25;;;;;;;36.42;16.10;;;12.60;99.90;;;;;;4898502;28;92482;-80
2022/10/01 13:13:52;;;;;;;18.45;8.73;;;12.70;99.90;;;;;;4819495;29;91775;-80
2022/10/01 13:16:29;;;;;;;6.75;2.50;;;12.60;99.90;;;;;;4894775;28;92590;-80
2022/10/01 13:19:16;;;;;;;6.00;2.65;;;12.50;99.90;;;;;;4901644;28;90518;-81
2022/10/01 13:22:07;;;;;;;5.15;2.60;;;12.20;99.90;;;;;;4905258;28;92944;-81
2022/10/01 13:24:47;;;;;;;7.88;1.73;;;11.80;99.90;;;;;;4909663;28;94024;-80
2022/10/01 13:27:22;;;;;;;3.95;1.50;;;11.40;99.90;;;;;;4893525;28;92466;-80
2022/10/01 13:30:02;;;;;;;11.73;4.97;;;11.30;99.90;;;;;;4903541;28;91991;-80
2022/10/01 13:32:36;;;;;;;13.48;5.78;;;11.70;99.90;;;;;;4896596;28;92177;-80
2022/10/01 13:35:27;;;;;;;12.00;4.78;;;11.90;99.90;;;;;;4904302;28;91813;-83
2022/10/01 13:37:53;;;;;;;11.38;3.05;;;12.10;99.90;;;;;;4891267;28;91959;-81
2022/10/01 13:40:32;;;;;;;5.07;1.98;;;12.20;99.90;;;;;;4902816;28;91275;-81
2022/10/01 13:43:15;;;;;;;8.15;4.53;;;12.20;99.90;;;;;;4897628;28;92885;-80
2022/10/01 13:45:44;;;;;;;5.07;1.80;;;12.20;99.90;;;;;;4891191;28;91382;-82
2022/10/01 13:48:09;;;;;;;4.15;1.77;;;12.40;99.90;;;;;;4896573;28;93034;-82
2022/10/01 13:50:37;;;;;;;2.95;1.23;;;12.40;99.90;;;;;;4889325;28;93739;-82
2022/10/01 13:53:25;;;;;;;4.75;1.33;;;12.40;99.90;;;;;;4889613;28;94192;-81
2022/10/01 13:55:52;;;;;;;5.05;1.40;;;12.30;99.90;;;;;;4891390;28;92880;-82
2022/10/01 13:58:23;;;;;;;3.67;1.40;;;12.30;99.90;;;;;;4893603;28;91987;-82
2022/10/01 14:00:52;;;;;;;3.25;1.40;;;12.40;99.90;;;;;;4896664;28;91741;-82
2022/10/01 14:03:24;;;;;;;5.55;1.80;;;12.50;99.90;;;;;;4899464;28;92411;-81
2022/10/01 14:05:56;;;;;;;6.00;1.63;;;12.50;99.90;;;;;;4897539;28;92048;-81
2022/10/01 14:08:33;;;;;;;7.88;2.00;;;12.50;99.90;;;;;;4898936;28;92061;-81
2022/10/01 14:17:21;;;;;;;5.38;1.65;;;12.40;99.90;;;;;;4888963;28;91337;-84
2022/10/01 14:19:49;;;;;;;5.22;1.42;;;12.40;99.90;;;;;;4892826;28;92685;-84
2022/10/01 14:22:30;;;;;;;4.55;2.00;;;12.40;99.90;;;;;;4900123;28;91834;-84
2022/10/01 14:25:04;;;;;;;3.42;1.48;;;12.30;99.90;;;;;;4897932;28;92316;-85
2022/10/01 14:27:39;;;;;;;5.00;2.20;;;12.40;99.90;;;;;;4903733;28;92113;-84
2022/10/01 14:30:11;;;;;;;3.88;1.70;;;12.20;99.90;;;;;;4904989;28;91440;-83
2022/10/01 14:33:09;;;;;;;2.92;1.20;;;11.80;99.90;;;;;;4898275;28;91960;-84
2022/10/01 14:35:48;;;;;;;3.67;1.73;;;11.70;99.90;;;;;;4810096;28;92595;-84
2022/10/01 14:38:22;;;;;;;4.03;1.52;;;11.90;99.90;;;;;;4899229;28;91199;-84
2022/10/01 14:40:49;;;;;;;5.13;1.50;;;11.70;99.90;;;;;;4899793;28;92118;-85
2022/10/01 14:43:23;;;;;;;4.82;1.70;;;11.50;99.90;;;;;;4907187;28;92185;-84
2022/10/01 14:45:58;;;;;;;5.10;1.90;;;11.50;99.90;;;;;;4897078;28;93783;-84
2022/10/01 14:48:28;;;;;;;4.72;1.45;;;11.60;99.90;;;;;;4899218;28;92116;-84
2022/10/01 14:50:57;;;;;;;3.65;1.25;;;11.70;99.90;;;;;;4899551;28;91318;-84
2022/10/01 14:53:26;;;;;;;4.55;1.80;;;11.80;99.90;;;;;;4894806;28;92031;-84
2022/10/01 14:55:55;;;;;;;6.32;1.90;;;11.70;99.90;;;;;;4903992;28;91761;-84
2022/10/01 14:58:29;;;;;;;5.90;2.05;;;11.80;99.90;;;;;;4903853;28;91870;-85
2022/10/01 15:00:56;;;;;;;4.65;1.50;;;11.80;99.90;;;;;;4897027;28;91754;-84
2022/10/01 15:03:22;;;;;;;4.57;2.17;;;11.80;99.90;;;;;;4905622;28;91328;-84
2022/10/01 15:05:49;;;;;;;3.53;1.52;;;11.70;99.90;;;;;;4898607;28;92340;-85
2022/10/01 15:08:35;;;;;;;5.80;1.75;;;11.70;99.90;;;;;;4897219;28;91995;-84
2022/10/01 15:11:05;;;;;;;5.10;2.17;;;11.60;99.90;;;;;;4898603;28;92784;-85
2022/10/01 15:13:39;;;;;;;4.60;1.60;;;11.50;99.90;;;;;;4902494;28;91763;-85
2022/10/01 15:16:15;;;;;;;5.72;2.47;;;11.50;99.90;;;;;;4903234;28;92266;-84
2022/10/01 15:18:52;;;;;;;4.50;2.10;;;11.50;99.90;;;;;;4896980;28;92112;-85
2022/10/01 15:21:44;;;;;;;4.22;2.00;;;11.50;99.90;;;;;;4899254;28;91703;-84
2022/10/01 15:24:18;;;;;;;4.22;2.03;;;11.60;99.90;;;;;;4899020;28;92001;-85
2022/10/01 15:26:46;;;;;;;4.55;2.10;;;11.50;99.90;;;;;;4898060;28;91733;-84
2022/10/01 15:29:15;;;;;;;7.93;2.42;;;11.50;99.90;;;;;;4898491;28;93096;-84
2022/10/01 15:31:46;;;;;;;5.50;2.35;;;11.30;99.90;;;;;;4895821;28;91704;-85
2022/10/01 15:34:16;;;;;;;7.50;2.80;;;11.10;99.90;;;;;;4903177;28;91504;-84
2022/10/01 15:36:42;;;;;;;;;;;10.90;99.90;;;;;;4899511;28;93110;-85
2022/10/01 15:39:37;;;;;;;4.72;2.05;;;10.70;99.90;;;;;;4900885;28;91890;-84
2022/10/01 15:42:24;;;;;;;5.88;2.25;;;10.70;99.90;;;;;;4898257;28;91927;-84
2022/10/01 15:45:06;;;;;;;4.72;2.50;;;10.70;99.90;;;;;;4895655;28;92206;-84
2022/10/01 15:47:40;;;;;;;3.38;1.92;;;10.60;99.90;;;;;;4898142;28;91640;-84
2022/10/01 15:50:08;;;;;;;8.00;2.67;;;10.60;99.90;;;;;;4902066;28;91925;-82
2022/10/01 15:53:00;;;;;;;6.35;2.53;;;10.50;99.90;;;;;;4898002;28;91392;-83
2022/10/01 15:55:33;;;;;;;6.50;2.58;;;10.60;99.90;;;;;;4888086;28;91287;-83
2022/10/01 15:58:19;;;;;;;8.82;2.67;;;10.60;99.90;;;;;;4900941;28;91905;-83
2022/10/01 16:00:57;;;;;;;7.30;2.30;;;10.60;99.90;;;;;;4899455;28;91915;-83
2022/10/01 16:03:42;;;;;;;6.65;2.60;;;10.70;99.90;;;;;;4892742;28;92443;-80
2022/10/01 16:06:23;;;;;;;6.00;2.28;;;10.70;99.90;;;;;;4904356;28;91423;-83
2022/10/01 16:09:00;;;;;;;8.60;2.70;;;10.80;99.90;;;;;;4892832;28;92270;-82
2022/10/01 16:11:32;;;;;;;5.00;2.95;;;10.80;99.90;;;;;;4896479;28;92365;-84
2022/10/01 16:14:19;;;;;;;6.40;3.20;;;10.70;99.90;;;;;;4898750;28;93168;-84
2022/10/01 16:16:45;;;;;;;8.35;3.45;;;10.80;99.90;;;;;;4901690;28;91394;-78
2022/10/01 16:19:28;;;;;;;6.93;3.22;;;10.80;99.90;;;;;;4898060;28;91823;-80
2022/10/01 16:22:17;;;;;;;;;;;10.80;99.90;;;;;;4918229;28;91930;-79
2022/10/01 16:24:51;;;;;;;4.40;2.22;;;10.80;99.90;;;;;;4910367;28;91327;-79
2022/10/01 16:27:24;;;;;;;5.47;2.50;;;11.00;99.90;;;;;;4898401;28;92110;-80
2022/10/01 16:29:55;;;;;;;5.20;2.40;;;10.90;99.90;;;;;;4907815;28;93279;-80